sensor_id;sensor_type;location;lat;lon;timestamp;temperature;humidity
3564;DHT22;1796;52.388;13.096;2022-12-18T00:01:23;-5.80;99.90
3564;DHT22;1796;52.388;13.096;2022-12-18T00:03:53;-5.70;99.90
3564;DHT22;1796;52.388;13.096;2022-12-18T00:06:20;-5.70;99.90
3564;DHT22;1796;52.388;13.096;2022-12-18T00:08:48;-5.70;99.90
3564;DHT22;1796;52.388;13.096;2022-12-18T00:11:17;-5.70;99.90
3564;DHT22;1796;52.388;13.096;2022-12-18T00:13:45;-5.80;99.90
3564;DHT22;1796;52.388;13.096;2022-12-18T00:16:14;-5.70;99.90
3564;DHT22;1796;52.388;13.096;2022-12-18T00:18:41;-5.70;99.90
3564;DHT22;1796;52.388;13.096;2022-12-18T00:21:11;-5.70;99.90
3564;DHT22;1796;52.388;13.096;2022-12-18T00:23:40;-5.60;99.90
3564;DHT22;1796;52.388;13.096;2022-12-18T00:26:16;-5.60;99.90
3564;DHT22;1796;52.388;13.096;2022-12-18T00:28:44;-5.60;99.90
3564;DHT22;1796;52.388;13.096;2022-12-18T00:31:13;-5.60;99.90
3564;DHT22;1796;52.388;13.096;2022-12-18T00:33:41;-5.60;99.90
3564;DHT22;1796;52.388;13.096;2022-12-18T00:36:12;-5.60;99.90
3564;DHT22;1796;52.388;13.096;2022-12-18T00:38:40;-5.60;99.90
3564;DHT22;1796;52.388;13.096;2022-12-18T00:41:08;-5.60;99.90
3564;DHT22;1796;52.388;13.096;2022-12-18T00:43:36;-5.70;99.90
3564;DHT22;1796;52.388;13.096;2022-12-18T00:46:02;-5.60;99.90
3564;DHT22;1796;52.388;13.096;2022-12-18T00:48:29;-5.60;99.90
3564;DHT22;1796;52.388;13.096;2022-12-18T00:50:56;-5.60;99.90
3564;DHT22;1796;52.388;13.096;2022-12-18T00:53:24;-5.60;99.90
3564;DHT22;1796;52.388;13.096;2022-12-18T00:55:51;-5.60;99.90
3564;DHT22;1796;52.388;13.096;2022-12-18T00:58:24;-5.60;99.90
3564;DHT22;1796;52.388;13.096;2022-12-18T01:00:51;-5.60;99.90
3564;DHT22;1796;52.388;13.096;2022-12-18T01:03:18;-5.70;99.90
3564;DHT22;1796;52.388;13.096;2022-12-18T01:05:44;-5.70;99.90
3564;DHT22;1796;52.388;13.096;2022-12-18T01:08:11;-5.70;99.90
3564;DHT22;1796;52.388;13.096;2022-12-18T01:10:41;-5.60;99.90
3564;DHT22;1796;52.388;13.096;2022-12-18T01:13:08;-5.70;99.90
3564;DHT22;1796;52.388;13.096;2022-12-18T01:15:35;-5.70;99.90
3564;DHT22;1796;52.388;13.096;2022-12-18T01:18:05;-5.70;99.90
3564;DHT22;1796;52.388;13.096;2022-12-18T01:20:32;-5.70;99.90
3564;DHT22;1796;52.388;13.096;2022-12-18T01:22:59;-5.70;99.90
3564;DHT22;1796;52.388;13.096;2022-12-18T01:25:26;-5.60;99.90
3564;DHT22;1796;52.388;13.096;2022-12-18T01:27:55;-5.60;99.90
3564;DHT22;1796;52.388;13.096;2022-12-18T01:30:22;-5.70;99.90
3564;DHT22;1796;52.388;13.096;2022-12-18T01:32:49;-5.70;99.90
3564;DHT22;1796;52.388;13.096;2022-12-18T01:35:16;-5.80;99.90
3564;DHT22;1796;52.388;13.096;2022-12-18T01:37:43;-5.80;99.90
3564;DHT22;1796;52.388;13.096;2022-12-18T01:40:10;-5.80;99.90
3564;DHT22;1796;52.388;13.096;2022-12-18T01:42:38;-5.80;99.90
3564;DHT22;1796;52.388;13.096;2022-12-18T01:45:22;-5.80;99.90
3564;DHT22;1796;52.388;13.096;2022-12-18T01:47:52;-5.80;99.90
3564;DHT22;1796;52.388;13.096;2022-12-18T01:50:21;-5.80;99.90
3564;DHT22;1796;52.388;13.096;2022-12-18T01:52:53;-5.80;99.90
3564;DHT22;1796;52.388;13.096;2022-12-18T01:55:23;-5.80;99.90
3564;DHT22;1796;52.388;13.096;2022-12-18T01:57:53;-5.80;99.90
3564;DHT22;1796;52.388;13.096;2022-12-18T02:00:23;-5.80;99.90
3564;DHT22;1796;52.388;13.096;2022-12-18T02:02:50;-5.70;99.90
3564;DHT22;1796;52.388;13.096;2022-12-18T02:05:19;-5.80;99.90
3564;DHT22;1796;52.388;13.096;2022-12-18T02:08:00;-5.70;99.90
3564;DHT22;1796;52.388;13.096;2022-12-18T02:10:36;-5.70;99.90
3564;DHT22;1796;52.388;13.096;2022-12-18T02:13:12;-5.70;99.90
3564;DHT22;1796;52.388;13.096;2022-12-18T02:15:47;-5.70;99.90
3564;DHT22;1796;52.388;13.096;2022-12-18T02:18:20;-5.80;99.90
3564;DHT22;1796;52.388;13.096;2022-12-18T02:20:53;-5.80;99.90
3564;DHT22;1796;52.388;13.096;2022-12-18T02:23:37;-5.70;99.90
3564;DHT22;1796;52.388;13.096;2022-12-18T02:26:14;-5.80;99.90
3564;DHT22;1796;52.388;13.096;2022-12-18T02:28:45;-5.90;99.90
3564;DHT22;1796;52.388;13.096;2022-12-18T02:31:15;-5.90;99.90
3564;DHT22;1796;52.388;13.096;2022-12-18T02:33:44;-5.90;99.90
3564;DHT22;1796;52.388;13.096;2022-12-18T02:36:12;-5.90;99.90
3564;DHT22;1796;52.388;13.096;2022-12-18T02:38:42;-5.90;99.90
3564;DHT22;1796;52.388;13.096;2022-12-18T02:41:13;-5.90;99.90
3564;DHT22;1796;52.388;13.096;2022-12-18T02:43:43;-5.90;99.90
3564;DHT22;1796;52.388;13.096;2022-12-18T02:46:32;-5.90;99.90
3564;DHT22;1796;52.388;13.096;2022-12-18T02:49:06;-5.90;99.90
3564;DHT22;1796;52.388;13.096;2022-12-18T02:51:42;-5.90;99.90
3564;DHT22;1796;52.388;13.096;2022-12-18T02:54:21;-5.90;99.90
3564;DHT22;1796;52.388;13.096;2022-12-18T02:56:54;-5.90;99.90
3564;DHT22;1796;52.388;13.096;2022-12-18T02:59:28;-5.90;99.90
3564;DHT22;1796;52.388;13.096;2022-12-18T03:02:01;-5.80;99.90
3564;DHT22;1796;52.388;13.096;2022-12-18T03:04:32;-5.80;99.90
3564;DHT22;1796;52.388;13.096;2022-12-18T03:07:04;-5.90;99.90
3564;DHT22;1796;52.388;13.096;2022-12-18T03:09:35;-5.90;99.90
3564;DHT22;1796;52.388;13.096;2022-12-18T03:12:12;-5.90;99.90
3564;DHT22;1796;52.388;13.096;2022-12-18T03:14:53;-6.00;99.90
3564;DHT22;1796;52.388;13.096;2022-12-18T03:17:24;-6.00;99.90
3564;DHT22;1796;52.388;13.096;2022-12-18T03:19:54;-5.90;99.90
3564;DHT22;1796;52.388;13.096;2022-12-18T03:22:23;-5.90;99.90
3564;DHT22;1796;52.388;13.096;2022-12-18T03:24:51;-5.90;99.90
3564;DHT22;1796;52.388;13.096;2022-12-18T03:27:23;-6.00;99.90
3564;DHT22;1796;52.388;13.096;2022-12-18T03:29:53;-5.90;99.90
3564;DHT22;1796;52.388;13.096;2022-12-18T03:32:28;-6.00;99.90
3564;DHT22;1796;52.388;13.096;2022-12-18T03:34:59;-5.90;99.90
3564;DHT22;1796;52.388;13.096;2022-12-18T03:37:27;-6.00;99.90
3564;DHT22;1796;52.388;13.096;2022-12-18T03:39:54;-5.90;99.90
3564;DHT22;1796;52.388;13.096;2022-12-18T03:42:27;-6.00;99.90
3564;DHT22;1796;52.388;13.096;2022-12-18T03:45:00;-6.00;99.90
3564;DHT22;1796;52.388;13.096;2022-12-18T03:47:33;-6.00;99.90
3564;DHT22;1796;52.388;13.096;2022-12-18T03:50:10;-5.90;99.90
3564;DHT22;1796;52.388;13.096;2022-12-18T03:52:42;-6.00;99.90
3564;DHT22;1796;52.388;13.096;2022-12-18T03:55:13;-6.00;99.90
3564;DHT22;1796;52.388;13.096;2022-12-18T03:57:42;-6.00;99.90
3564;DHT22;1796;52.388;13.096;2022-12-18T04:00:12;-6.00;99.90
3564;DHT22;1796;52.388;13.096;2022-12-18T04:02:43;-6.10;99.90
3564;DHT22;1796;52.388;13.096;2022-12-18T04:05:12;-6.10;99.90
3564;DHT22;1796;52.388;13.096;2022-12-18T04:07:41;-6.10;99.90
3564;DHT22;1796;52.388;13.096;2022-12-18T04:10:09;-6.10;99.90
3564;DHT22;1796;52.388;13.096;2022-12-18T04:12:37;-6.00;99.90
3564;DHT22;1796;52.388;13.096;2022-12-18T04:15:07;-6.00;99.90
3564;DHT22;1796;52.388;13.096;2022-12-18T04:17:34;-6.00;99.90
3564;DHT22;1796;52.388;13.096;2022-12-18T04:20:01;-6.10;99.90
3564;DHT22;1796;52.388;13.096;2022-12-18T04:22:28;-6.10;99.90
3564;DHT22;1796;52.388;13.096;2022-12-18T04:24:54;-6.10;99.90
3564;DHT22;1796;52.388;13.096;2022-12-18T04:27:21;-6.10;99.90
3564;DHT22;1796;52.388;13.096;2022-12-18T04:29:48;-6.10;99.90
3564;DHT22;1796;52.388;13.096;2022-12-18T04:32:16;-6.10;99.90
3564;DHT22;1796;52.388;13.096;2022-12-18T04:34:43;-6.20;99.90
3564;DHT22;1796;52.388;13.096;2022-12-18T04:37:10;-6.10;99.90
3564;DHT22;1796;52.388;13.096;2022-12-18T04:39:37;-6.20;99.90
3564;DHT22;1796;52.388;13.096;2022-12-18T04:42:04;-6.10;99.90
3564;DHT22;1796;52.388;13.096;2022-12-18T04:44:31;-6.20;99.90
3564;DHT22;1796;52.388;13.096;2022-12-18T04:46:58;-6.20;99.90
3564;DHT22;1796;52.388;13.096;2022-12-18T04:49:26;-6.20;99.90
3564;DHT22;1796;52.388;13.096;2022-12-18T04:51:53;-6.10;99.90
3564;DHT22;1796;52.388;13.096;2022-12-18T04:54:20;-6.10;99.90
3564;DHT22;1796;52.388;13.096;2022-12-18T04:56:47;-6.20;99.90
3564;DHT22;1796;52.388;13.096;2022-12-18T04:59:14;-6.20;99.90
3564;DHT22;1796;52.388;13.096;2022-12-18T05:01:41;-6.20;99.90
3564;DHT22;1796;52.388;13.096;2022-12-18T05:04:08;-6.20;99.90
3564;DHT22;1796;52.388;13.096;2022-12-18T05:06:36;-6.10;99.90
3564;DHT22;1796;52.388;13.096;2022-12-18T05:09:03;-6.10;99.90
3564;DHT22;1796;52.388;13.096;2022-12-18T05:11:30;-6.10;99.90
3564;DHT22;1796;52.388;13.096;2022-12-18T05:13:56;-6.00;99.90
3564;DHT22;1796;52.388;13.096;2022-12-18T05:16:23;-6.00;99.90
3564;DHT22;1796;52.388;13.096;2022-12-18T05:18:50;-6.10;99.90
3564;DHT22;1796;52.388;13.096;2022-12-18T05:21:17;-6.10;99.90
3564;DHT22;1796;52.388;13.096;2022-12-18T05:23:45;-6.00;99.90
3564;DHT22;1796;52.388;13.096;2022-12-18T05:26:18;-6.00;99.90
3564;DHT22;1796;52.388;13.096;2022-12-18T05:28:45;-6.00;99.90
3564;DHT22;1796;52.388;13.096;2022-12-18T05:31:13;-6.00;99.90
3564;DHT22;1796;52.388;13.096;2022-12-18T05:33:40;-6.00;99.90
3564;DHT22;1796;52.388;13.096;2022-12-18T05:36:08;-6.00;99.90
3564;DHT22;1796;52.388;13.096;2022-12-18T05:38:37;-6.00;99.90
3564;DHT22;1796;52.388;13.096;2022-12-18T05:41:06;-5.90;99.90
3564;DHT22;1796;52.388;13.096;2022-12-18T05:43:35;-5.90;99.90
3564;DHT22;1796;52.388;13.096;2022-12-18T05:46:06;-5.90;99.90
3564;DHT22;1796;52.388;13.096;2022-12-18T05:48:33;-5.90;99.90
3564;DHT22;1796;52.388;13.096;2022-12-18T05:51:05;-5.80;99.90
3564;DHT22;1796;52.388;13.096;2022-12-18T05:53:32;-5.80;99.90
3564;DHT22;1796;52.388;13.096;2022-12-18T05:56:01;-5.80;99.90
3564;DHT22;1796;52.388;13.096;2022-12-18T05:58:30;-5.80;99.90
3564;DHT22;1796;52.388;13.096;2022-12-18T06:00:57;-5.80;99.90
3564;DHT22;1796;52.388;13.096;2022-12-18T06:03:24;-5.70;99.90
3564;DHT22;1796;52.388;13.096;2022-12-18T06:05:51;-5.60;99.90
3564;DHT22;1796;52.388;13.096;2022-12-18T06:08:18;-5.60;99.90
3564;DHT22;1796;52.388;13.096;2022-12-18T06:10:50;-5.60;99.90
3564;DHT22;1796;52.388;13.096;2022-12-18T06:13:17;-5.60;99.90
3564;DHT22;1796;52.388;13.096;2022-12-18T06:15:46;-5.70;99.90
3564;DHT22;1796;52.388;13.096;2022-12-18T06:18:13;-5.60;99.90
3564;DHT22;1796;52.388;13.096;2022-12-18T06:20:39;-5.60;99.90
3564;DHT22;1796;52.388;13.096;2022-12-18T06:23:07;-5.60;99.90
3564;DHT22;1796;52.388;13.096;2022-12-18T06:25:37;-5.60;99.90
3564;DHT22;1796;52.388;13.096;2022-12-18T06:28:04;-5.70;99.90
3564;DHT22;1796;52.388;13.096;2022-12-18T06:30:31;-5.60;99.90
3564;DHT22;1796;52.388;13.096;2022-12-18T06:32:59;-5.60;99.90
3564;DHT22;1796;52.388;13.096;2022-12-18T06:35:26;-5.70;99.90
3564;DHT22;1796;52.388;13.096;2022-12-18T06:37:53;-5.60;99.90
3564;DHT22;1796;52.388;13.096;2022-12-18T06:40:20;-5.60;99.90
3564;DHT22;1796;52.388;13.096;2022-12-18T06:42:47;-5.60;99.90
3564;DHT22;1796;52.388;13.096;2022-12-18T06:45:15;-5.60;99.90
3564;DHT22;1796;52.388;13.096;2022-12-18T06:47:42;-5.60;99.90
3564;DHT22;1796;52.388;13.096;2022-12-18T06:50:10;-5.60;99.90
3564;DHT22;1796;52.388;13.096;2022-12-18T06:52:37;-5.60;99.90
3564;DHT22;1796;52.388;13.096;2022-12-18T06:55:07;-5.60;99.90
3564;DHT22;1796;52.388;13.096;2022-12-18T06:57:35;-5.50;99.90
3564;DHT22;1796;52.388;13.096;2022-12-18T07:00:03;-5.50;99.90
3564;DHT22;1796;52.388;13.096;2022-12-18T07:02:31;-5.50;99.90
3564;DHT22;1796;52.388;13.096;2022-12-18T07:04:58;-5.40;99.90
3564;DHT22;1796;52.388;13.096;2022-12-18T07:07:26;-5.40;99.90
3564;DHT22;1796;52.388;13.096;2022-12-18T07:09:53;-5.40;99.90
3564;DHT22;1796;52.388;13.096;2022-12-18T07:12:20;-5.30;99.90
3564;DHT22;1796;52.388;13.096;2022-12-18T07:14:47;-5.30;99.90
3564;DHT22;1796;52.388;13.096;2022-12-18T07:17:13;-5.30;99.90
3564;DHT22;1796;52.388;13.096;2022-12-18T07:19:40;-5.30;99.90
3564;DHT22;1796;52.388;13.096;2022-12-18T07:22:07;-5.20;99.90
3564;DHT22;1796;52.388;13.096;2022-12-18T07:24:35;-5.30;99.90
3564;DHT22;1796;52.388;13.096;2022-12-18T07:27:02;-5.30;99.90
3564;DHT22;1796;52.388;13.096;2022-12-18T07:29:29;-5.30;99.90
3564;DHT22;1796;52.388;13.096;2022-12-18T07:31:56;-5.30;99.90
3564;DHT22;1796;52.388;13.096;2022-12-18T07:34:23;-5.30;99.90
3564;DHT22;1796;52.388;13.096;2022-12-18T07:36:50;-5.20;99.90
3564;DHT22;1796;52.388;13.096;2022-12-18T07:39:17;-5.10;99.90
3564;DHT22;1796;52.388;13.096;2022-12-18T07:41:45;-5.10;99.90
3564;DHT22;1796;52.388;13.096;2022-12-18T07:44:32;-5.10;99.90
3564;DHT22;1796;52.388;13.096;2022-12-18T07:46:59;-5.20;99.90
3564;DHT22;1796;52.388;13.096;2022-12-18T07:49:26;-5.20;99.90
3564;DHT22;1796;52.388;13.096;2022-12-18T07:51:54;-5.10;99.90
3564;DHT22;1796;52.388;13.096;2022-12-18T07:54:21;-5.10;99.90
3564;DHT22;1796;52.388;13.096;2022-12-18T07:56:49;-5.10;99.90
3564;DHT22;1796;52.388;13.096;2022-12-18T07:59:16;-5.20;99.90
3564;DHT22;1796;52.388;13.096;2022-12-18T08:01:43;-5.10;99.90
3564;DHT22;1796;52.388;13.096;2022-12-18T08:04:10;-5.30;99.90
3564;DHT22;1796;52.388;13.096;2022-12-18T08:06:37;-5.30;99.90
3564;DHT22;1796;52.388;13.096;2022-12-18T08:09:04;-5.20;99.90
3564;DHT22;1796;52.388;13.096;2022-12-18T08:11:31;-5.20;99.90
3564;DHT22;1796;52.388;13.096;2022-12-18T08:13:59;-5.20;99.90
3564;DHT22;1796;52.388;13.096;2022-12-18T08:16:27;-5.20;99.90
3564;DHT22;1796;52.388;13.096;2022-12-18T08:18:54;-5.20;99.90
3564;DHT22;1796;52.388;13.096;2022-12-18T08:21:23;-5.20;99.90
3564;DHT22;1796;52.388;13.096;2022-12-18T08:23:51;-5.30;99.90
3564;DHT22;1796;52.388;13.096;2022-12-18T08:26:19;-5.30;99.90
3564;DHT22;1796;52.388;13.096;2022-12-18T08:28:46;-5.20;99.90
3564;DHT22;1796;52.388;13.096;2022-12-18T08:31:14;-5.20;99.90
3564;DHT22;1796;52.388;13.096;2022-12-18T08:33:41;-5.20;99.90
3564;DHT22;1796;52.388;13.096;2022-12-18T08:36:09;-5.10;99.90
3564;DHT22;1796;52.388;13.096;2022-12-18T08:38:36;-5.00;99.90
3564;DHT22;1796;52.388;13.096;2022-12-18T08:41:05;-5.20;99.90
3564;DHT22;1796;52.388;13.096;2022-12-18T08:43:33;-5.10;99.90
3564;DHT22;1796;52.388;13.096;2022-12-18T08:46:19;-5.00;99.90
3564;DHT22;1796;52.388;13.096;2022-12-18T08:48:46;-5.00;99.90
3564;DHT22;1796;52.388;13.096;2022-12-18T08:51:16;-5.00;99.90
3564;DHT22;1796;52.388;13.096;2022-12-18T08:53:42;-5.00;99.90
3564;DHT22;1796;52.388;13.096;2022-12-18T08:56:10;-5.10;99.90
3564;DHT22;1796;52.388;13.096;2022-12-18T08:58:36;-5.00;99.90
3564;DHT22;1796;52.388;13.096;2022-12-18T09:01:05;-4.90;99.90
3564;DHT22;1796;52.388;13.096;2022-12-18T09:03:34;-5.00;99.90
3564;DHT22;1796;52.388;13.096;2022-12-18T09:06:01;-5.00;99.90
3564;DHT22;1796;52.388;13.096;2022-12-18T09:08:29;-4.90;99.90
3564;DHT22;1796;52.388;13.096;2022-12-18T09:10:56;-4.80;99.90
3564;DHT22;1796;52.388;13.096;2022-12-18T09:13:23;-4.80;99.90
3564;DHT22;1796;52.388;13.096;2022-12-18T09:15:51;-4.80;99.90
3564;DHT22;1796;52.388;13.096;2022-12-18T09:18:20;-4.90;99.90
3564;DHT22;1796;52.388;13.096;2022-12-18T09:20:48;-4.80;99.90
3564;DHT22;1796;52.388;13.096;2022-12-18T09:23:17;-4.70;99.90
3564;DHT22;1796;52.388;13.096;2022-12-18T09:25:44;-4.80;99.90
3564;DHT22;1796;52.388;13.096;2022-12-18T09:28:12;-4.90;99.90
3564;DHT22;1796;52.388;13.096;2022-12-18T09:30:42;-4.70;99.90
3564;DHT22;1796;52.388;13.096;2022-12-18T09:33:10;-4.70;99.90
3564;DHT22;1796;52.388;13.096;2022-12-18T09:35:37;-4.60;99.90
3564;DHT22;1796;52.388;13.096;2022-12-18T09:38:06;-4.60;99.90
3564;DHT22;1796;52.388;13.096;2022-12-18T09:40:35;-4.50;99.90
3564;DHT22;1796;52.388;13.096;2022-12-18T09:43:04;-4.40;99.90
3564;DHT22;1796;52.388;13.096;2022-12-18T09:45:38;-4.40;99.90
3564;DHT22;1796;52.388;13.096;2022-12-18T09:48:08;-4.40;99.90
3564;DHT22;1796;52.388;13.096;2022-12-18T09:50:39;-4.60;99.90
3564;DHT22;1796;52.388;13.096;2022-12-18T09:53:12;-4.60;99.90
3564;DHT22;1796;52.388;13.096;2022-12-18T09:55:41;-4.60;99.90
3564;DHT22;1796;52.388;13.096;2022-12-18T09:58:15;-4.60;99.90
3564;DHT22;1796;52.388;13.096;2022-12-18T10:00:43;-4.60;99.90
3564;DHT22;1796;52.388;13.096;2022-12-18T10:03:11;-4.50;99.90
3564;DHT22;1796;52.388;13.096;2022-12-18T10:05:43;-4.40;99.90
3564;DHT22;1796;52.388;13.096;2022-12-18T10:08:18;-4.50;99.90
3564;DHT22;1796;52.388;13.096;2022-12-18T10:10:51;-4.40;99.90
3564;DHT22;1796;52.388;13.096;2022-12-18T10:13:26;-4.10;99.90
3564;DHT22;1796;52.388;13.096;2022-12-18T10:16:07;-4.10;99.90
3564;DHT22;1796;52.388;13.096;2022-12-18T10:18:56;-4.00;99.90
3564;DHT22;1796;52.388;13.096;2022-12-18T10:21:32;-4.00;99.90
3564;DHT22;1796;52.388;13.096;2022-12-18T10:24:12;-3.90;99.90
3564;DHT22;1796;52.388;13.096;2022-12-18T10:26:42;-4.00;99.90
3564;DHT22;1796;52.388;13.096;2022-12-18T10:29:12;-4.00;99.90
3564;DHT22;1796;52.388;13.096;2022-12-18T10:31:39;-3.90;99.90
3564;DHT22;1796;52.388;13.096;2022-12-18T10:34:09;-3.90;99.90
3564;DHT22;1796;52.388;13.096;2022-12-18T10:36:37;-4.00;99.90
3564;DHT22;1796;52.388;13.096;2022-12-18T10:39:16;-3.90;99.90
3564;DHT22;1796;52.388;13.096;2022-12-18T10:41:43;-3.90;99.90
3564;DHT22;1796;52.388;13.096;2022-12-18T10:44:16;-3.90;99.90
3564;DHT22;1796;52.388;13.096;2022-12-18T10:46:44;-3.90;99.90
3564;DHT22;1796;52.388;13.096;2022-12-18T10:49:26;-3.90;99.90
3564;DHT22;1796;52.388;13.096;2022-12-18T10:52:11;-3.80;99.90
3564;DHT22;1796;52.388;13.096;2022-12-18T10:54:46;-3.90;99.90
3564;DHT22;1796;52.388;13.096;2022-12-18T10:57:16;-3.80;99.90
3564;DHT22;1796;52.388;13.096;2022-12-18T10:59:51;-3.80;99.90
3564;DHT22;1796;52.388;13.096;2022-12-18T11:02:27;-3.80;99.90
3564;DHT22;1796;52.388;13.096;2022-12-18T11:04:54;-3.90;99.90
3564;DHT22;1796;52.388;13.096;2022-12-18T11:07:21;-3.90;99.90
3564;DHT22;1796;52.388;13.096;2022-12-18T11:10:00;-3.90;99.90
3564;DHT22;1796;52.388;13.096;2022-12-18T11:12:28;-3.80;99.90
3564;DHT22;1796;52.388;13.096;2022-12-18T11:14:56;-3.70;99.90
3564;DHT22;1796;52.388;13.096;2022-12-18T11:17:28;-4.00;99.90
3564;DHT22;1796;52.388;13.096;2022-12-18T11:19:57;-4.10;99.90
3564;DHT22;1796;52.388;13.096;2022-12-18T11:22:26;-4.00;99.90
3564;DHT22;1796;52.388;13.096;2022-12-18T11:24:57;-4.00;99.90
3564;DHT22;1796;52.388;13.096;2022-12-18T11:27:25;-4.00;99.90
3564;DHT22;1796;52.388;13.096;2022-12-18T11:29:53;-4.10;99.90
3564;DHT22;1796;52.388;13.096;2022-12-18T11:32:35;-4.20;99.90
3564;DHT22;1796;52.388;13.096;2022-12-18T11:35:12;-4.10;99.90
3564;DHT22;1796;52.388;13.096;2022-12-18T11:37:44;-4.10;99.90
3564;DHT22;1796;52.388;13.096;2022-12-18T11:40:17;-3.90;99.90
3564;DHT22;1796;52.388;13.096;2022-12-18T11:42:50;-3.90;99.90
3564;DHT22;1796;52.388;13.096;2022-12-18T11:45:25;-3.90;99.90
3564;DHT22;1796;52.388;13.096;2022-12-18T11:47:57;-3.70;99.90
3564;DHT22;1796;52.388;13.096;2022-12-18T11:50:28;-3.70;99.90
3564;DHT22;1796;52.388;13.096;2022-12-18T11:52:56;-3.70;99.90
3564;DHT22;1796;52.388;13.096;2022-12-18T11:55:30;-3.80;99.90
3564;DHT22;1796;52.388;13.096;2022-12-18T11:58:04;-3.80;99.90
3564;DHT22;1796;52.388;13.096;2022-12-18T12:00:37;-3.70;99.90
3564;DHT22;1796;52.388;13.096;2022-12-18T12:03:39;-3.60;99.90
3564;DHT22;1796;52.388;13.096;2022-12-18T12:06:19;-3.70;99.90
3564;DHT22;1796;52.388;13.096;2022-12-18T12:08:58;-3.60;99.90
3564;DHT22;1796;52.388;13.096;2022-12-18T12:11:38;-3.50;99.90
3564;DHT22;1796;52.388;13.096;2022-12-18T12:14:15;-3.50;99.90
3564;DHT22;1796;52.388;13.096;2022-12-18T12:16:51;-3.60;99.90
3564;DHT22;1796;52.388;13.096;2022-12-18T12:19:31;-3.50;99.90
3564;DHT22;1796;52.388;13.096;2022-12-18T12:22:09;-3.50;99.90
3564;DHT22;1796;52.388;13.096;2022-12-18T12:24:49;-3.50;99.90
3564;DHT22;1796;52.388;13.096;2022-12-18T12:27:24;-3.50;99.90
3564;DHT22;1796;52.388;13.096;2022-12-18T12:30:03;-3.30;99.90
3564;DHT22;1796;52.388;13.096;2022-12-18T12:32:46;-3.30;99.90
3564;DHT22;1796;52.388;13.096;2022-12-18T12:35:25;-3.20;99.90
3564;DHT22;1796;52.388;13.096;2022-12-18T12:38:04;-3.20;99.90
3564;DHT22;1796;52.388;13.096;2022-12-18T12:40:35;-3.20;99.90
3564;DHT22;1796;52.388;13.096;2022-12-18T12:43:15;-3.20;99.90
3564;DHT22;1796;52.388;13.096;2022-12-18T12:45:48;-3.20;99.90
3564;DHT22;1796;52.388;13.096;2022-12-18T12:48:20;-3.20;99.90
3564;DHT22;1796;52.388;13.096;2022-12-18T12:50:50;-3.20;99.90
3564;DHT22;1796;52.388;13.096;2022-12-18T12:53:23;-3.10;99.90
3564;DHT22;1796;52.388;13.096;2022-12-18T12:55:52;-3.20;99.90
3564;DHT22;1796;52.388;13.096;2022-12-18T12:58:28;-3.20;99.90
3564;DHT22;1796;52.388;13.096;2022-12-18T13:01:10;-3.30;99.90
3564;DHT22;1796;52.388;13.096;2022-12-18T13:03:50;-3.30;99.90
3564;DHT22;1796;52.388;13.096;2022-12-18T13:06:27;-3.20;99.90
3564;DHT22;1796;52.388;13.096;2022-12-18T13:08:57;-3.20;99.90
3564;DHT22;1796;52.388;13.096;2022-12-18T13:11:34;-3.20;99.90
3564;DHT22;1796;52.388;13.096;2022-12-18T13:14:24;-3.20;99.90
3564;DHT22;1796;52.388;13.096;2022-12-18T13:16:51;-3.20;99.90
3564;DHT22;1796;52.388;13.096;2022-12-18T13:19:26;-3.20;99.90
3564;DHT22;1796;52.388;13.096;2022-12-18T13:21:54;-3.00;99.90
3564;DHT22;1796;52.388;13.096;2022-12-18T13:24:26;-3.00;99.90
3564;DHT22;1796;52.388;13.096;2022-12-18T13:26:53;-3.00;99.90
3564;DHT22;1796;52.388;13.096;2022-12-18T13:29:44;-2.90;99.90
3564;DHT22;1796;52.388;13.096;2022-12-18T13:32:22;-2.90;99.90
3564;DHT22;1796;52.388;13.096;2022-12-18T13:37:54;-3.10;99.90
3564;DHT22;1796;52.388;13.096;2022-12-18T13:40:55;-3.10;99.90
3564;DHT22;1796;52.388;13.096;2022-12-18T13:43:26;-3.20;99.90
3564;DHT22;1796;52.388;13.096;2022-12-18T13:46:03;-3.20;99.90
3564;DHT22;1796;52.388;13.096;2022-12-18T13:48:33;-3.30;99.90
3564;DHT22;1796;52.388;13.096;2022-12-18T13:51:04;-3.30;99.90
3564;DHT22;1796;52.388;13.096;2022-12-18T13:53:36;-3.40;99.90
3564;DHT22;1796;52.388;13.096;2022-12-18T13:56:05;-3.50;99.90
3564;DHT22;1796;52.388;13.096;2022-12-18T13:58:32;-3.50;99.90
3564;DHT22;1796;52.388;13.096;2022-12-18T14:00:59;-3.50;99.90
3564;DHT22;1796;52.388;13.096;2022-12-18T14:03:30;-3.60;99.90
3564;DHT22;1796;52.388;13.096;2022-12-18T14:06:02;-3.60;99.90
3564;DHT22;1796;52.388;13.096;2022-12-18T14:08:35;-3.50;99.90
3564;DHT22;1796;52.388;13.096;2022-12-18T14:11:04;-3.70;99.90
3564;DHT22;1796;52.388;13.096;2022-12-18T14:13:35;-3.60;99.90
3564;DHT22;1796;52.388;13.096;2022-12-18T14:16:04;-3.60;99.90
3564;DHT22;1796;52.388;13.096;2022-12-18T14:18:41;-3.60;99.90
3564;DHT22;1796;52.388;13.096;2022-12-18T14:21:18;-3.60;99.90
3564;DHT22;1796;52.388;13.096;2022-12-18T14:23:45;-3.60;99.90
3564;DHT22;1796;52.388;13.096;2022-12-18T14:26:21;-3.60;99.90
3564;DHT22;1796;52.388;13.096;2022-12-18T14:28:49;-3.70;99.90
3564;DHT22;1796;52.388;13.096;2022-12-18T14:31:19;-3.70;99.90
3564;DHT22;1796;52.388;13.096;2022-12-18T14:33:47;-3.80;99.90
3564;DHT22;1796;52.388;13.096;2022-12-18T14:36:17;-3.80;99.90
3564;DHT22;1796;52.388;13.096;2022-12-18T14:38:48;-3.70;99.90
3564;DHT22;1796;52.388;13.096;2022-12-18T14:41:17;-3.80;99.90
3564;DHT22;1796;52.388;13.096;2022-12-18T14:43:46;-3.80;99.90
3564;DHT22;1796;52.388;13.096;2022-12-18T14:46:28;-3.90;99.90
3564;DHT22;1796;52.388;13.096;2022-12-18T14:48:57;-3.90;99.90
3564;DHT22;1796;52.388;13.096;2022-12-18T14:51:25;-3.80;99.90
3564;DHT22;1796;52.388;13.096;2022-12-18T14:53:54;-3.80;99.90
3564;DHT22;1796;52.388;13.096;2022-12-18T14:56:23;-3.90;99.90
3564;DHT22;1796;52.388;13.096;2022-12-18T14:58:53;-4.00;99.90
3564;DHT22;1796;52.388;13.096;2022-12-18T15:01:25;-4.00;99.90
3564;DHT22;1796;52.388;13.096;2022-12-18T15:03:54;-4.10;99.90
3564;DHT22;1796;52.388;13.096;2022-12-18T15:06:29;-4.00;99.90
3564;DHT22;1796;52.388;13.096;2022-12-18T15:08:59;-4.00;99.90
3564;DHT22;1796;52.388;13.096;2022-12-18T15:11:28;-4.10;99.90
3564;DHT22;1796;52.388;13.096;2022-12-18T15:13:57;-4.20;99.90
3564;DHT22;1796;52.388;13.096;2022-12-18T15:16:24;-4.20;99.90
3564;DHT22;1796;52.388;13.096;2022-12-18T15:18:52;-4.10;99.90
3564;DHT22;1796;52.388;13.096;2022-12-18T15:21:20;-4.10;99.90
3564;DHT22;1796;52.388;13.096;2022-12-18T15:23:50;-4.10;99.90
3564;DHT22;1796;52.388;13.096;2022-12-18T15:26:20;-4.20;99.90
3564;DHT22;1796;52.388;13.096;2022-12-18T15:28:49;-4.20;99.90
3564;DHT22;1796;52.388;13.096;2022-12-18T15:31:28;-4.20;99.90
3564;DHT22;1796;52.388;13.096;2022-12-18T15:34:05;-4.20;99.90
3564;DHT22;1796;52.388;13.096;2022-12-18T15:36:36;-4.20;99.90
3564;DHT22;1796;52.388;13.096;2022-12-18T15:39:05;-4.30;99.90
3564;DHT22;1796;52.388;13.096;2022-12-18T15:41:32;-4.30;99.90
3564;DHT22;1796;52.388;13.096;2022-12-18T15:44:00;-4.40;99.90
3564;DHT22;1796;52.388;13.096;2022-12-18T15:46:26;-4.40;99.90
3564;DHT22;1796;52.388;13.096;2022-12-18T15:48:54;-4.40;99.90
3564;DHT22;1796;52.388;13.096;2022-12-18T15:51:24;-4.40;99.90
3564;DHT22;1796;52.388;13.096;2022-12-18T15:53:54;-4.50;99.90
3564;DHT22;1796;52.388;13.096;2022-12-18T15:56:23;-4.50;99.90
3564;DHT22;1796;52.388;13.096;2022-12-18T15:59:10;-4.50;99.90
3564;DHT22;1796;52.388;13.096;2022-12-18T16:01:38;-4.40;99.90
3564;DHT22;1796;52.388;13.096;2022-12-18T16:04:05;-4.40;99.90
3564;DHT22;1796;52.388;13.096;2022-12-18T16:06:32;-4.30;99.90
3564;DHT22;1796;52.388;13.096;2022-12-18T16:08:59;-4.30;99.90